Decoded Metar for KPLN (PELLSTON in MI, USA) (IATA:PLN) | Meteo·Mobile Aviation Weather
aviador You're here:

KPLN Decoded Metar

PELLSTON in MI, USA
Report Time2018-09-22 08:54:00
UTC Time2018-09-22 09:13:12
Flight Rules vfr VFR
WindCalm
Visibility9999 m
Phenomena:N/A
Clouds:Few 041 Hf
Scattered 048 Hf
CeilingNone
Temp02°C (ISA -12)
Dew Point02°C (100% RH)
AAT0.3°C
QNH1026 hPa
Density Alt-1,037 ft
Elevation712 ft
Report Wrong Elevation
Raw Report
KPLN 220854Z AUTO 00000KT 10SM FEW041 SCT048 02/02 A3029 RMK AO2
SLP262 T00220017 52009=

Extra information for KPLN:More info

Metar Taf Metar & Taf Last 4 Metars F.Rules Stats Wind Profile Meteogram Temp Stats Airport Information Weather charts Add Link Nearby VenuesMetar ALERT Operation Metar Decoded Social comments

AIRNAV info for KPLN